createdAt,value
2023-04-01T00:01:15.056Z,92.00
2023-04-01T00:03:42.534Z,92.10
2023-04-01T00:06:18.703Z,92.20
2023-04-01T00:08:49.899Z,92.20
2023-04-01T00:11:22.635Z,92.30
2023-04-01T00:13:50.434Z,92.40
2023-04-01T00:16:22.401Z,92.50
2023-04-01T00:18:51.838Z,92.50
2023-04-01T00:21:21.983Z,92.50
2023-04-01T00:23:54.214Z,92.50
2023-04-01T00:26:23.094Z,92.50
2023-04-01T00:28:50.946Z,92.60
2023-04-01T00:31:18.928Z,92.60
2023-04-01T00:33:46.901Z,92.70
2023-04-01T00:36:20.217Z,92.70
2023-04-01T00:38:51.106Z,92.70
2023-04-01T00:41:19.459Z,92.70
2023-04-01T00:43:51.205Z,92.80
2023-04-01T00:46:19.307Z,92.80
2023-04-01T00:48:57.497Z,92.80
2023-04-01T00:51:32.517Z,92.70
2023-04-01T00:54:02.859Z,92.40
2023-04-01T00:56:36.905Z,92.50
2023-04-01T00:59:17.361Z,92.60
2023-04-01T01:01:44.953Z,92.60
2023-04-01T01:04:34.274Z,92.60
2023-04-01T01:07:10.396Z,92.50
2023-04-01T01:09:58.025Z,92.50
2023-04-01T01:12:43.870Z,92.50
2023-04-01T01:15:58.152Z,92.50
2023-04-01T01:18:46.703Z,92.80
2023-04-01T01:21:40.221Z,93.10
2023-04-01T01:24:14.922Z,93.20
2023-04-01T01:26:53.533Z,93.30
2023-04-01T01:29:58.267Z,93.50
2023-04-01T01:32:46.659Z,93.50
2023-04-01T01:35:19.895Z,93.60
2023-04-01T01:37:51.554Z,93.90
2023-04-01T01:40:19.659Z,94.20
2023-04-01T01:42:51.691Z,94.50
2023-04-01T01:45:22.865Z,94.50
2023-04-01T01:47:51.223Z,94.50
2023-04-01T01:50:21.094Z,94.60
2023-04-01T01:52:48.300Z,94.70
2023-04-01T01:55:35.083Z,94.40
2023-04-01T01:58:15.934Z,94.30
2023-04-01T02:00:47.223Z,94.10
2023-04-01T02:03:16.014Z,94.10
2023-04-01T02:05:45.820Z,93.80
2023-04-01T02:08:40.688Z,93.70
2023-04-01T02:11:13.102Z,93.60
2023-04-01T02:13:59.628Z,93.60
2023-04-01T02:17:02.177Z,93.70
2023-04-01T02:19:39.335Z,93.70
2023-04-01T02:22:13.118Z,93.80
2023-04-01T02:24:42.468Z,94.00
2023-04-01T02:27:11.785Z,94.10
2023-04-01T02:29:39.816Z,93.90
2023-04-01T02:32:08.354Z,93.60
2023-04-01T02:34:36.390Z,93.60
2023-04-01T02:37:05.552Z,93.70
2023-04-01T02:39:36.448Z,93.60
2023-04-01T02:42:03.681Z,93.70
2023-04-01T02:44:30.848Z,93.70
2023-04-01T02:46:58.722Z,93.80
2023-04-01T02:49:29.012Z,93.80
2023-04-01T02:51:56.169Z,93.80
2023-04-01T02:54:25.067Z,93.70
2023-04-01T02:56:52.987Z,93.70
2023-04-01T02:59:23.258Z,93.80
2023-04-01T03:01:50.620Z,94.10
2023-04-01T03:04:18.440Z,94.00
2023-04-01T03:06:45.810Z,93.70
2023-04-01T03:09:18.899Z,93.50
2023-04-01T03:11:46.873Z,93.60
2023-04-01T03:14:14.161Z,93.90
2023-04-01T03:16:41.922Z,94.10
2023-04-01T03:19:11.218Z,93.80
2023-04-01T03:21:41.464Z,93.80
2023-04-01T03:24:09.181Z,93.70
2023-04-01T03:27:01.483Z,93.70
2023-04-01T03:29:29.171Z,93.50
2023-04-01T03:31:58.994Z,93.20
2023-04-01T03:34:27.044Z,93.20
2023-04-01T03:37:00.388Z,93.20
2023-04-01T03:39:28.067Z,93.10
2023-04-01T03:41:55.380Z,93.10
2023-04-01T03:44:22.557Z,93.40
2023-04-01T03:46:50.392Z,93.10
2023-04-01T03:49:17.751Z,93.00
2023-04-01T03:51:51.791Z,92.90
2023-04-01T03:54:21.160Z,93.10
2023-04-01T03:56:52.237Z,93.00
2023-04-01T03:59:26.038Z,92.80
2023-04-01T04:01:53.496Z,93.00
2023-04-01T04:04:21.165Z,92.90
2023-04-01T04:06:49.131Z,92.80
2023-04-01T04:09:16.775Z,92.80
2023-04-01T04:11:43.929Z,92.80
2023-04-01T04:14:11.041Z,92.80
2023-04-01T04:16:38.736Z,92.60
2023-04-01T04:19:06.163Z,92.90
2023-04-01T04:21:33.901Z,92.70
2023-04-01T04:24:02.267Z,92.70
2023-04-01T04:26:29.503Z,92.60
2023-04-01T04:28:57.315Z,92.60
2023-04-01T04:31:26.622Z,92.10
2023-04-01T04:33:54.665Z,92.00
2023-04-01T04:36:25.438Z,91.80
2023-04-01T04:38:52.931Z,91.90
2023-04-01T04:41:23.302Z,91.80
2023-04-01T04:43:55.203Z,92.00
2023-04-01T04:46:23.429Z,92.00
2023-04-01T04:48:50.913Z,91.80
2023-04-01T04:51:20.559Z,91.90
2023-04-01T04:53:50.180Z,91.60
2023-04-01T04:56:21.030Z,91.50
2023-04-01T04:58:49.737Z,91.20
2023-04-01T05:01:17.945Z,91.10
2023-04-01T05:03:48.586Z,91.00
2023-04-01T05:06:27.088Z,91.30
2023-04-01T05:08:54.336Z,91.40
2023-04-01T05:11:24.122Z,91.30
2023-04-01T05:13:51.755Z,91.30
2023-04-01T05:16:22.578Z,91.30
2023-04-01T05:18:50.060Z,91.60
2023-04-01T05:21:19.917Z,91.50
2023-04-01T05:23:47.152Z,91.60
2023-04-01T05:26:19.083Z,91.60
2023-04-01T05:28:46.230Z,91.70
2023-04-01T05:31:13.713Z,91.80
2023-04-01T05:33:43.903Z,91.70
2023-04-01T05:36:14.039Z,91.70
2023-04-01T05:38:46.858Z,91.70
2023-04-01T05:41:24.522Z,91.70
2023-04-01T05:43:51.920Z,91.50
2023-04-01T05:46:19.562Z,91.30
2023-04-01T05:48:51.752Z,91.00
2023-04-01T05:51:19.413Z,90.70
2023-04-01T05:53:47.536Z,90.40
2023-04-01T05:56:14.849Z,90.40
2023-04-01T05:58:53.783Z,90.40
2023-04-01T06:01:21.595Z,90.40
2023-04-01T06:03:52.098Z,90.60
2023-04-01T06:06:34.421Z,90.70
2023-04-01T06:09:33.794Z,90.40
2023-04-01T06:12:44.175Z,90.20
2023-04-01T06:15:23.329Z,90.40
2023-04-01T06:18:20.494Z,90.20
2023-04-01T06:21:30.867Z,90.20
2023-04-01T06:24:14.570Z,90.30
2023-04-01T06:27:21.243Z,90.40
2023-04-01T06:29:57.518Z,90.40
2023-04-01T06:32:52.125Z,90.10
2023-04-01T06:35:44.596Z,90.00
2023-04-01T06:38:15.584Z,89.50
2023-04-01T06:41:04.961Z,89.80
2023-04-01T06:43:56.889Z,89.90
2023-04-01T06:46:36.037Z,89.80
2023-04-01T06:49:27.864Z,89.70
2023-04-01T06:52:02.429Z,89.30
2023-04-01T06:54:38.373Z,89.40
2023-04-01T06:57:38.304Z,89.60
2023-04-01T07:00:31.613Z,89.90
2023-04-01T07:03:30.646Z,89.50
2023-04-01T07:06:04.576Z,88.70
2023-04-01T07:08:37.556Z,88.50
2023-04-01T07:11:09.278Z,88.50
2023-04-01T07:13:47.045Z,88.40
2023-04-01T07:16:23.935Z,88.40
2023-04-01T07:18:57.638Z,88.40
2023-04-01T07:21:33.601Z,88.10
2023-04-01T07:24:29.393Z,87.70
2023-04-01T07:27:03.858Z,87.90
2023-04-01T07:29:31.458Z,88.20
2023-04-01T07:32:20.209Z,87.70
2023-04-01T07:35:14.059Z,87.20
2023-04-01T07:38:05.106Z,87.20
2023-04-01T07:40:44.367Z,87.20
2023-04-01T07:43:44.466Z,87.30
2023-04-01T07:46:45.868Z,86.60
2023-04-01T07:49:41.662Z,86.70
2023-04-01T07:53:06.676Z,87.00
2023-04-01T07:55:44.267Z,86.90
2023-04-01T07:58:26.056Z,86.50
2023-04-01T08:01:16.141Z,86.40
2023-04-01T08:04:11.387Z,86.60
2023-04-01T08:06:57.789Z,86.70
2023-04-01T08:10:05.728Z,86.90
2023-04-01T08:12:58.635Z,87.00
2023-04-01T08:15:59.338Z,87.10
2023-04-01T08:18:36.967Z,87.00
2023-04-01T08:21:15.518Z,86.70
2023-04-01T08:23:47.087Z,86.50
2023-04-01T08:26:46.088Z,86.90
2023-04-01T08:29:27.256Z,86.80
2023-04-01T08:32:17.028Z,86.80
2023-04-01T08:34:55.070Z,86.80
2023-04-01T08:37:34.784Z,87.10
2023-04-01T08:40:35.740Z,87.10
2023-04-01T08:43:21.645Z,87.30
2023-04-01T08:46:09.211Z,87.20
2023-04-01T08:49:13.660Z,87.00
2023-04-01T08:51:59.045Z,87.20
2023-04-01T08:55:18.966Z,86.90
2023-04-01T08:58:13.049Z,86.90
2023-04-01T09:00:42.956Z,86.40
2023-04-01T09:03:31.220Z,86.40
2023-04-01T09:06:48.882Z,86.00
2023-04-01T09:09:33.347Z,85.80
2023-04-01T09:12:19.002Z,85.40
2023-04-01T09:14:47.104Z,85.10
2023-04-01T09:17:48.575Z,84.50
2023-04-01T09:20:44.283Z,84.50
2023-04-01T09:23:34.626Z,84.00
2023-04-01T09:26:35.611Z,83.50
2023-04-01T09:29:11.123Z,83.70
2023-04-01T09:32:09.668Z,83.90
2023-04-01T09:35:08.857Z,84.00
2023-04-01T09:37:51.171Z,84.40
2023-04-01T09:41:02.876Z,84.10
2023-04-01T09:44:02.806Z,84.10
2023-04-01T09:46:57.252Z,84.10
2023-04-01T09:49:30.015Z,83.80
2023-04-01T09:52:45.419Z,83.60
2023-04-01T09:55:35.768Z,83.30
2023-04-01T09:58:08.963Z,83.30
2023-04-01T10:01:15.178Z,83.60
2023-04-01T10:04:13.239Z,83.50
2023-04-01T10:07:11.209Z,83.50
2023-04-01T10:10:15.799Z,84.30
2023-04-01T10:12:58.478Z,84.50
2023-04-01T10:15:45.835Z,85.40
2023-04-01T10:18:41.090Z,85.20
2023-04-01T10:21:27.159Z,86.00
2023-04-01T10:24:19.225Z,86.10
2023-04-01T10:27:04.291Z,86.00
2023-04-01T10:30:06.561Z,85.80
2023-04-01T10:32:43.569Z,85.80
2023-04-01T10:35:30.886Z,85.20
2023-04-01T10:38:42.914Z,85.20
2023-04-01T10:41:35.822Z,85.30
2023-04-01T10:44:27.258Z,86.10
2023-04-01T10:47:22.437Z,86.10
2023-04-01T10:50:11.313Z,86.10
2023-04-01T10:52:58.071Z,85.90
2023-04-01T10:55:57.876Z,86.10
2023-04-01T10:59:00.894Z,86.30
2023-04-01T11:02:04.040Z,86.40
2023-04-01T11:04:54.304Z,85.90
2023-04-01T11:07:29.508Z,86.30
2023-04-01T11:09:59.429Z,86.50
2023-04-01T11:12:48.621Z,86.20
2023-04-01T11:15:33.374Z,85.70
2023-04-01T11:18:33.576Z,85.00
2023-04-01T11:21:55.082Z,85.10
2023-04-01T11:24:31.515Z,84.40
2023-04-01T11:27:14.430Z,85.10
2023-04-01T11:30:04.647Z,84.40
2023-04-01T11:33:02.001Z,83.80
2023-04-01T11:35:32.612Z,84.00
2023-04-01T11:38:12.026Z,83.00
2023-04-01T11:41:10.040Z,83.30
2023-04-01T11:43:52.423Z,83.00
2023-04-01T11:46:42.723Z,82.30
2023-04-01T11:49:34.588Z,81.00
2023-04-01T11:52:19.747Z,81.40
2023-04-01T11:55:11.000Z,81.50
2023-04-01T11:58:12.150Z,82.10
2023-04-01T12:01:08.341Z,82.60
2023-04-01T12:04:02.261Z,82.80
2023-04-01T12:06:42.211Z,83.10
2023-04-01T12:09:50.730Z,82.00
2023-04-01T12:12:24.844Z,82.60
2023-04-01T12:15:18.956Z,82.70
2023-04-01T12:18:02.684Z,81.90
2023-04-01T12:20:47.120Z,82.30
2023-04-01T12:23:33.123Z,82.20
2023-04-01T12:26:18.066Z,82.20
2023-04-01T12:29:26.205Z,80.70
2023-04-01T12:32:15.401Z,80.70
2023-04-01T12:34:46.466Z,80.30
2023-04-01T12:37:41.448Z,80.70
2023-04-01T12:40:38.439Z,80.80
2023-04-01T12:43:21.534Z,80.90
2023-04-01T12:46:17.999Z,81.30
2023-04-01T12:49:04.180Z,81.30
2023-04-01T12:51:38.590Z,81.40
2023-04-01T12:54:43.350Z,81.50
2023-04-01T12:57:34.579Z,80.80
2023-04-01T13:00:32.761Z,80.40
2023-04-01T13:03:08.158Z,80.40
2023-04-01T13:05:57.012Z,80.30
2023-04-01T13:09:21.290Z,80.10
2023-04-01T13:12:08.298Z,79.80
2023-04-01T13:14:36.107Z,79.60
2023-04-01T13:17:08.819Z,79.70
2023-04-01T13:20:13.213Z,80.00
2023-04-01T13:22:52.465Z,79.40
2023-04-01T13:25:40.521Z,79.90
2023-04-01T13:28:27.872Z,79.90
2023-04-01T13:31:23.659Z,80.00
2023-04-01T13:34:23.829Z,80.00
2023-04-01T13:37:36.121Z,79.40
2023-04-01T13:40:21.407Z,79.30
2023-04-01T13:42:55.579Z,79.20
2023-04-01T13:45:31.539Z,79.60
2023-04-01T13:48:16.981Z,79.10
2023-04-01T13:51:09.573Z,79.10
2023-04-01T13:54:10.695Z,79.10
2023-04-01T13:56:44.307Z,79.60
2023-04-01T13:59:33.108Z,79.60
2023-04-01T14:02:32.875Z,79.50
2023-04-01T14:05:41.873Z,78.80
2023-04-01T14:08:31.420Z,78.40
2023-04-01T14:11:28.575Z,78.20
2023-04-01T14:14:19.349Z,77.90
2023-04-01T14:16:46.463Z,77.80
2023-04-01T14:19:26.929Z,78.30
2023-04-01T14:22:16.111Z,78.00
2023-04-01T14:25:24.229Z,78.60
2023-04-01T14:28:34.300Z,78.30
2023-04-01T14:31:22.887Z,78.20
2023-04-01T14:34:38.534Z,77.80
2023-04-01T14:37:17.811Z,77.60
2023-04-01T14:40:13.943Z,77.40
2023-04-01T14:43:17.530Z,77.50
2023-04-01T14:45:56.546Z,77.90
2023-04-01T14:49:03.269Z,77.70
2023-04-01T14:51:38.764Z,77.60
2023-04-01T14:54:24.826Z,77.40
2023-04-01T14:57:13.469Z,77.30
2023-04-01T15:00:00.690Z,77.50
2023-04-01T15:02:37.324Z,77.90
2023-04-01T15:05:26.331Z,78.20
2023-04-01T15:07:53.408Z,78.60
2023-04-01T15:10:52.622Z,78.70
2023-04-01T15:13:48.576Z,78.90
2023-04-01T15:16:34.595Z,78.60
2023-04-01T15:19:12.775Z,78.80
2023-04-01T15:22:21.221Z,78.80
2023-04-01T15:25:25.698Z,78.90
2023-04-01T15:28:12.339Z,78.70
2023-04-01T15:31:11.389Z,78.80
2023-04-01T15:33:54.526Z,78.90
2023-04-01T15:36:36.998Z,78.90
2023-04-01T15:39:28.799Z,78.60
2023-04-01T15:42:33.319Z,78.20
2023-04-01T15:45:06.538Z,77.90
2023-04-01T15:47:43.734Z,78.20
2023-04-01T15:50:43.086Z,78.60
2023-04-01T15:53:29.266Z,78.70
2023-04-01T15:56:08.186Z,78.80
2023-04-01T15:58:52.642Z,79.20
2023-04-01T16:01:33.922Z,78.90
2023-04-01T16:04:32.001Z,79.40
2023-04-01T16:07:11.834Z,79.50
2023-04-01T16:09:54.111Z,79.60
2023-04-01T16:12:51.546Z,79.50
2023-04-01T16:15:39.913Z,79.60
2023-04-01T16:18:17.639Z,79.70
2023-04-01T16:21:06.395Z,80.00
2023-04-01T16:24:03.865Z,80.30
2023-04-01T16:26:34.816Z,80.70
2023-04-01T16:29:13.144Z,81.20
2023-04-01T16:31:59.086Z,81.40
2023-04-01T16:34:42.890Z,81.30
2023-04-01T16:37:34.669Z,81.30
2023-04-01T16:40:39.478Z,81.80
2023-04-01T16:43:11.698Z,81.80
2023-04-01T16:45:54.734Z,82.10
2023-04-01T16:48:56.080Z,82.10
2023-04-01T16:51:25.726Z,82.30
2023-04-01T16:54:18.805Z,82.50
2023-04-01T16:56:57.465Z,82.80
2023-04-01T16:59:47.890Z,83.10
2023-04-01T17:02:27.661Z,83.10
2023-04-01T17:05:16.631Z,83.20
2023-04-01T17:08:05.643Z,83.30
2023-04-01T17:10:50.879Z,83.50
2023-04-01T17:13:36.818Z,83.70
2023-04-01T17:16:40.093Z,83.60
2023-04-01T17:19:26.486Z,83.50
2023-04-01T17:22:34.163Z,83.70
2023-04-01T17:25:14.653Z,83.90
2023-04-01T17:28:06.565Z,84.10
2023-04-01T17:31:04.497Z,84.10
2023-04-01T17:33:50.381Z,84.20
2023-04-01T17:36:21.085Z,84.30
2023-04-01T17:39:22.271Z,84.20
2023-04-01T17:42:15.641Z,84.30
2023-04-01T17:45:34.217Z,84.40
2023-04-01T17:48:25.477Z,84.10
2023-04-01T17:51:07.695Z,84.40
2023-04-01T17:53:53.506Z,84.40
2023-04-01T17:56:23.861Z,84.00
2023-04-01T17:59:33.122Z,84.30
2023-04-01T18:02:19.205Z,84.20
2023-04-01T18:05:02.162Z,84.60
2023-04-01T18:07:33.439Z,84.90
2023-04-01T18:10:13.095Z,85.00
2023-04-01T18:13:14.238Z,85.00
2023-04-01T18:16:20.126Z,85.10
2023-04-01T18:19:25.174Z,84.90
2023-04-01T18:21:57.705Z,85.10
2023-04-01T18:24:58.774Z,85.30
2023-04-01T18:27:51.836Z,85.30
2023-04-01T18:30:32.823Z,85.50
2023-04-01T18:33:27.080Z,85.70
2023-04-01T18:35:59.823Z,85.80
2023-04-01T18:38:41.526Z,86.00
2023-04-01T18:41:30.461Z,86.10
2023-04-01T18:44:16.118Z,86.10
2023-04-01T18:46:59.718Z,86.10
2023-04-01T18:50:11.948Z,86.10
2023-04-01T18:52:49.128Z,86.00
2023-04-01T18:55:26.547Z,85.90
2023-04-01T18:58:01.233Z,85.80
2023-04-01T19:00:41.257Z,85.60
2023-04-01T19:03:34.450Z,85.80
2023-04-01T19:06:10.158Z,85.80
2023-04-01T19:08:41.434Z,85.70
2023-04-01T19:11:23.113Z,85.80
2023-04-01T19:14:18.057Z,85.70
2023-04-01T19:17:00.787Z,85.30
2023-04-01T19:19:46.526Z,85.30
2023-04-01T19:22:26.599Z,85.20
2023-04-01T19:25:22.773Z,85.10
2023-04-01T19:28:20.820Z,85.20
2023-04-01T19:31:10.852Z,85.10
2023-04-01T19:33:47.844Z,85.10
2023-04-01T19:36:37.019Z,85.10
2023-04-01T19:39:38.280Z,85.00
2023-04-01T19:42:41.339Z,85.20
2023-04-01T19:45:38.988Z,85.30
2023-04-01T19:48:36.078Z,85.50
2023-04-01T19:51:06.907Z,85.60
2023-04-01T19:53:39.628Z,85.80
2023-04-01T19:56:20.707Z,85.90
2023-04-01T19:59:27.237Z,86.00
2023-04-01T20:02:05.256Z,86.00
2023-04-01T20:05:02.817Z,86.00
2023-04-01T20:07:39.692Z,85.90
2023-04-01T20:10:47.663Z,85.80
2023-04-01T20:13:39.083Z,85.70
2023-04-01T20:16:09.081Z,85.90
2023-04-01T20:18:59.187Z,85.80
2023-04-01T20:21:51.502Z,85.70
2023-04-01T20:24:25.150Z,85.90
2023-04-01T20:27:04.519Z,85.90
2023-04-01T20:30:16.238Z,85.70
2023-04-01T20:33:01.204Z,85.80
2023-04-01T20:36:15.335Z,85.60
2023-04-01T20:39:23.245Z,85.70
2023-04-01T20:42:10.717Z,86.00
2023-04-01T20:45:11.251Z,86.00
2023-04-01T20:47:52.899Z,86.10
2023-04-01T20:50:57.902Z,86.30
2023-04-01T20:53:42.784Z,86.40
2023-04-01T20:56:41.056Z,86.60
2023-04-01T20:59:27.206Z,86.70
2023-04-01T21:02:22.181Z,86.80
2023-04-01T21:05:26.513Z,86.60
2023-04-01T21:08:04.035Z,86.80
2023-04-01T21:11:09.338Z,86.70
2023-04-01T21:14:04.658Z,86.90
2023-04-01T21:16:54.151Z,87.10
2023-04-01T21:19:53.389Z,87.00
2023-04-01T21:22:38.314Z,87.00
2023-04-01T21:25:36.853Z,87.00
2023-04-01T21:28:20.430Z,87.10
2023-04-01T21:31:19.687Z,87.20
2023-04-01T21:33:56.255Z,87.20
2023-04-01T21:36:52.210Z,87.30
2023-04-01T21:39:40.184Z,87.20
2023-04-01T21:42:39.191Z,87.30
2023-04-01T21:45:15.549Z,87.20
2023-04-01T21:47:58.546Z,86.90
2023-04-01T21:51:01.620Z,87.00
2023-04-01T21:53:52.800Z,86.90
2023-04-01T21:57:03.114Z,86.80
2023-04-01T21:59:51.916Z,86.50
2023-04-01T22:02:56.544Z,86.50
2023-04-01T22:05:30.502Z,86.50
2023-04-01T22:08:15.004Z,86.60
2023-04-01T22:10:53.739Z,86.70
2023-04-01T22:13:34.720Z,86.40
2023-04-01T22:16:35.657Z,86.20
2023-04-01T22:19:24.218Z,86.20
2023-04-01T22:22:02.616Z,86.30
2023-04-01T22:24:58.434Z,86.00
2023-04-01T22:27:57.415Z,86.20
2023-04-01T22:30:31.584Z,86.10
2023-04-01T22:33:26.435Z,86.00
2023-04-01T22:36:26.002Z,86.10
2023-04-01T22:39:11.950Z,86.10
2023-04-01T22:42:01.295Z,86.00
2023-04-01T22:44:43.304Z,86.10
2023-04-01T22:47:40.494Z,86.20
2023-04-01T22:50:26.776Z,86.40
2023-04-01T22:53:16.753Z,86.20
2023-04-01T22:55:53.081Z,86.00
2023-04-01T22:58:34.021Z,86.20
2023-04-01T23:01:10.774Z,86.20
2023-04-01T23:03:42.383Z,86.20
2023-04-01T23:06:27.282Z,86.30
2023-04-01T23:09:23.737Z,86.00
2023-04-01T23:12:10.827Z,85.90
2023-04-01T23:14:44.759Z,86.00
2023-04-01T23:17:57.080Z,86.00
2023-04-01T23:20:54.078Z,86.00
2023-04-01T23:23:40.625Z,86.10
2023-04-01T23:26:35.517Z,86.00
2023-04-01T23:29:19.485Z,85.80
2023-04-01T23:32:04.349Z,86.00
2023-04-01T23:34:36.707Z,85.90
2023-04-01T23:37:18.338Z,85.80
2023-04-01T23:39:51.782Z,85.60
2023-04-01T23:42:29.756Z,85.50
2023-04-01T23:45:02.810Z,85.20
2023-04-01T23:47:35.114Z,84.90
2023-04-01T23:50:15.379Z,84.90
2023-04-01T23:52:48.551Z,84.70
2023-04-01T23:55:20.736Z,84.50
2023-04-01T23:58:06.770Z,83.80
